Milwaukee, Wisconsin
Traffic Map
Current Weather Conditions
Milwaukee, Wisconsin
Broken Clouds Haze
Broken Clouds
-2°
Feels Like: -2°
Wind Chill: -2° Ceiling: 25000
Heat Index: -2° Visibility: 5mi
Dew Point: -6° Wind: 0mph
Humidity: 75% Direction: ° ()
Pressure: 30.14in Gusts: 0mph
Raw Report DataKMKE 261652Z 00000KT 5SM HZ BKN250 M02/M06 A3014 RMK AO2 SLP218 T10221061
Traffic Incident Summary
Active as of:
Severity:
Category:
InformationThere was an issue retrieving the traffic information for this location. Please try a different location or try again shortly.
Advertisements
Track Severe Weather on mobile